map of LPB home
LPB - Airport
Location
City:  La Paz, Pedro Domingo Murillo, La Paz, Bolivia
Name:J. F. Kennedy/El Alto International Airport
ICAO:SLLP
IATA:LPB

Details
Type:Airport (Aerodrome, Airfield)
Use:Public/Civil, Military, International (customs port of entry)
Latitude:1630'48"S (-16.513338)
Longitude:6811'32"W (-68.192255)
Datum:WGS 1984
Elevation:13325 ft (4061 m)
Variation:8.03W (WMM2015 magnetic declination)
-0.19 annual change
Runways:2
Longest:13123 × 151 ft (4000 × 46 m), paved

Time
Time Zone:UTC-4
Local Time:

Weather
METAR:SLLP 151900Z 27011G21KT 9999 SCT017 12/M07 Q1036

Related Locations
Nearby:
Farthest:ZJYX: 12404 mi / 19962 km
Yongxing Island [Yongxing Island Airport], Xisha Islands (Woody Island, Paracel Islands), 46, CN

Find:

   beyond  
but within

Other Information
Maps:
NOTAMs:
Links:
Sources:

  
  • flag of Bolivia
  • flag of La Paz
  

Airport Diagram

Airport diagram for LPB

Larger airport diagram (OBSOLETE) from NGA

Sectional Chart

Flight Planning
at skyvector.com

Satellite Image

Google Maps Satellite view

 

Copyright © 2004-2018 Karl L. Swartz. All rights reserved.
The Great Circle Mapper name and logo are trademarks of the Great Circle Mapper.
All other trademarks mentioned herein belong to their respective owners.
Please see credits for attibutions and further copyright information.

  Follow gcmap on Facebook Follow gcmap on Twitter Follow gcmap on Google+ GCmap on LinkedIn

hCard Microformat

Geo Microformat